Sao Joao da Mata, Brazil
Current Conditions -  °F | °C
As of 6:00 PM on Saturday 25 Oct 2014 (Local Time) from SBGW Reporting Station
Broken Clouds Broken Clouds  
Wind Chill: 77°   Ceiling: 10000
Heat Index: 79°   Visibility: 6mi
Dew Point: 64°   Wind: 3mph
Humidity: 65%   Direction: 360°N
Pressure: 29.91"   Gusts: NA
Location:  21.93°S, 45.93°W
Report Text: SBGW 252000Z 36003KT 9999 SCT025 BKN100 25/18 Q1013
Loading
Personal Weather Stations






























Interactive Weather Map New forecast layout! Learn more

10-Day Weather Forecast

Advertisements
Track Severe Weather on mobile